sensor_id;sensor_type;location;lat;lon;timestamp;temperature;humidity
65239;SHT30;51827;51.186;6.926;2023-11-21T00:00:04;19.23;58.38
65239;SHT30;51827;51.186;6.926;2023-11-21T00:01:04;19.24;58.35
65239;SHT30;51827;51.186;6.926;2023-11-21T00:02:05;19.26;58.35
65239;SHT30;51827;51.186;6.926;2023-11-21T00:03:05;19.22;58.36
65239;SHT30;51827;51.186;6.926;2023-11-21T00:04:05;19.20;58.37
65239;SHT30;51827;51.186;6.926;2023-11-21T00:05:09;19.22;58.39
65239;SHT30;51827;51.186;6.926;2023-11-21T00:06:10;19.23;58.38
65239;SHT30;51827;51.186;6.926;2023-11-21T00:07:11;19.22;58.36
65239;SHT30;51827;51.186;6.926;2023-11-21T00:08:11;19.22;58.35
65239;SHT30;51827;51.186;6.926;2023-11-21T00:09:11;19.22;58.37
65239;SHT30;51827;51.186;6.926;2023-11-21T00:10:12;19.23;58.38
65239;SHT30;51827;51.186;6.926;2023-11-21T00:11:12;19.23;58.38
65239;SHT30;51827;51.186;6.926;2023-11-21T00:12:12;19.24;58.34
65239;SHT30;51827;51.186;6.926;2023-11-21T00:13:13;19.20;58.34
65239;SHT30;51827;51.186;6.926;2023-11-21T00:14:13;19.22;58.32
65239;SHT30;51827;51.186;6.926;2023-11-21T00:15:13;19.20;58.32
65239;SHT30;51827;51.186;6.926;2023-11-21T00:16:14;19.23;58.33
65239;SHT30;51827;51.186;6.926;2023-11-21T00:17:14;19.23;58.33
65239;SHT30;51827;51.186;6.926;2023-11-21T00:18:14;19.18;58.32
65239;SHT30;51827;51.186;6.926;2023-11-21T00:19:14;19.22;58.30
65239;SHT30;51827;51.186;6.926;2023-11-21T00:20:15;19.23;58.31
65239;SHT30;51827;51.186;6.926;2023-11-21T00:21:15;19.22;58.35
65239;SHT30;51827;51.186;6.926;2023-11-21T00:22:15;19.23;58.31
65239;SHT30;51827;51.186;6.926;2023-11-21T00:23:15;19.22;58.26
65239;SHT30;51827;51.186;6.926;2023-11-21T00:24:16;19.23;58.29
65239;SHT30;51827;51.186;6.926;2023-11-21T00:25:16;19.23;58.27
65239;SHT30;51827;51.186;6.926;2023-11-21T00:26:16;19.22;58.29
65239;SHT30;51827;51.186;6.926;2023-11-21T00:27:17;19.20;58.31
65239;SHT30;51827;51.186;6.926;2023-11-21T00:28:17;19.22;58.25
65239;SHT30;51827;51.186;6.926;2023-11-21T00:29:17;19.22;58.24
65239;SHT30;51827;51.186;6.926;2023-11-21T00:30:17;19.22;58.25
65239;SHT30;51827;51.186;6.926;2023-11-21T00:31:18;19.22;58.27
65239;SHT30;51827;51.186;6.926;2023-11-21T00:32:18;19.22;58.23
65239;SHT30;51827;51.186;6.926;2023-11-21T00:33:18;19.24;58.28
65239;SHT30;51827;51.186;6.926;2023-11-21T00:34:18;19.22;58.25
65239;SHT30;51827;51.186;6.926;2023-11-21T00:35:19;19.23;58.24
65239;SHT30;51827;51.186;6.926;2023-11-21T00:36:19;19.22;58.23
65239;SHT30;51827;51.186;6.926;2023-11-21T00:37:19;19.20;58.25
65239;SHT30;51827;51.186;6.926;2023-11-21T00:38:19;19.24;58.22
65239;SHT30;51827;51.186;6.926;2023-11-21T00:39:20;19.20;58.23
65239;SHT30;51827;51.186;6.926;2023-11-21T00:40:20;19.20;58.23
65239;SHT30;51827;51.186;6.926;2023-11-21T00:41:20;19.22;58.26
65239;SHT30;51827;51.186;6.926;2023-11-21T00:42:20;19.22;58.24
65239;SHT30;51827;51.186;6.926;2023-11-21T00:43:21;19.20;58.21
65239;SHT30;51827;51.186;6.926;2023-11-21T00:44:21;19.20;58.19
65239;SHT30;51827;51.186;6.926;2023-11-21T00:45:21;19.22;58.23
65239;SHT30;51827;51.186;6.926;2023-11-21T00:46:21;19.19;58.19
65239;SHT30;51827;51.186;6.926;2023-11-21T00:47:22;19.22;58.24
65239;SHT30;51827;51.186;6.926;2023-11-21T00:48:22;19.22;58.18
65239;SHT30;51827;51.186;6.926;2023-11-21T00:49:22;19.22;58.21
65239;SHT30;51827;51.186;6.926;2023-11-21T00:50:22;19.20;58.22
65239;SHT30;51827;51.186;6.926;2023-11-21T00:51:23;19.22;58.20
65239;SHT30;51827;51.186;6.926;2023-11-21T00:52:23;19.20;58.19
65239;SHT30;51827;51.186;6.926;2023-11-21T00:53:23;19.22;58.23
65239;SHT30;51827;51.186;6.926;2023-11-21T00:54:23;19.19;58.23
65239;SHT30;51827;51.186;6.926;2023-11-21T00:55:24;19.19;58.23
65239;SHT30;51827;51.186;6.926;2023-11-21T00:56:24;19.20;58.23
65239;SHT30;51827;51.186;6.926;2023-11-21T00:57:24;19.20;58.21
65239;SHT30;51827;51.186;6.926;2023-11-21T00:58:24;19.18;58.21
65239;SHT30;51827;51.186;6.926;2023-11-21T00:59:25;19.20;58.20
65239;SHT30;51827;51.186;6.926;2023-11-21T01:00:25;19.18;58.19
65239;SHT30;51827;51.186;6.926;2023-11-21T01:01:25;19.20;58.21
65239;SHT30;51827;51.186;6.926;2023-11-21T01:02:26;19.20;58.21
65239;SHT30;51827;51.186;6.926;2023-11-21T01:03:26;19.19;58.19
65239;SHT30;51827;51.186;6.926;2023-11-21T01:04:27;19.20;58.16
65239;SHT30;51827;51.186;6.926;2023-11-21T01:05:27;19.22;58.18
65239;SHT30;51827;51.186;6.926;2023-11-21T01:06:27;19.20;58.15
65239;SHT30;51827;51.186;6.926;2023-11-21T01:07:27;19.19;58.18
65239;SHT30;51827;51.186;6.926;2023-11-21T01:08:28;19.19;58.18
65239;SHT30;51827;51.186;6.926;2023-11-21T01:09:28;19.20;58.21
65239;SHT30;51827;51.186;6.926;2023-11-21T01:10:28;19.22;58.20
65239;SHT30;51827;51.186;6.926;2023-11-21T01:11:28;19.18;58.19
65239;SHT30;51827;51.186;6.926;2023-11-21T01:12:29;19.18;58.16
65239;SHT30;51827;51.186;6.926;2023-11-21T01:13:29;19.19;58.16
65239;SHT30;51827;51.186;6.926;2023-11-21T01:14:29;19.18;58.19
65239;SHT30;51827;51.186;6.926;2023-11-21T01:15:29;19.19;58.16
65239;SHT30;51827;51.186;6.926;2023-11-21T01:16:30;19.22;58.16
65239;SHT30;51827;51.186;6.926;2023-11-21T01:17:30;19.20;58.12
65239;SHT30;51827;51.186;6.926;2023-11-21T01:18:30;19.20;58.19
65239;SHT30;51827;51.186;6.926;2023-11-21T01:19:31;19.20;58.16
65239;SHT30;51827;51.186;6.926;2023-11-21T01:20:31;19.19;58.18
65239;SHT30;51827;51.186;6.926;2023-11-21T01:21:31;19.20;58.16
65239;SHT30;51827;51.186;6.926;2023-11-21T01:22:31;19.19;58.15
65239;SHT30;51827;51.186;6.926;2023-11-21T01:23:32;19.16;58.16
65239;SHT30;51827;51.186;6.926;2023-11-21T01:24:32;19.20;58.16
65239;SHT30;51827;51.186;6.926;2023-11-21T01:25:32;19.18;58.16
65239;SHT30;51827;51.186;6.926;2023-11-21T01:26:33;19.19;58.19
65239;SHT30;51827;51.186;6.926;2023-11-21T01:27:34;19.18;58.18
65239;SHT30;51827;51.186;6.926;2023-11-21T01:28:34;19.18;58.19
65239;SHT30;51827;51.186;6.926;2023-11-21T01:29:35;19.22;58.15
65239;SHT30;51827;51.186;6.926;2023-11-21T01:30:35;19.20;58.14
65239;SHT30;51827;51.186;6.926;2023-11-21T01:31:35;19.20;58.15
65239;SHT30;51827;51.186;6.926;2023-11-21T01:32:36;19.18;58.15
65239;SHT30;51827;51.186;6.926;2023-11-21T01:33:36;19.19;58.13
65239;SHT30;51827;51.186;6.926;2023-11-21T01:34:37;19.19;58.14
65239;SHT30;51827;51.186;6.926;2023-11-21T01:35:39;19.19;58.18
65239;SHT30;51827;51.186;6.926;2023-11-21T01:36:39;19.20;58.17
65239;SHT30;51827;51.186;6.926;2023-11-21T01:37:39;19.19;58.19
65239;SHT30;51827;51.186;6.926;2023-11-21T01:38:40;19.16;58.16
65239;SHT30;51827;51.186;6.926;2023-11-21T01:39:40;19.19;58.16
65239;SHT30;51827;51.186;6.926;2023-11-21T01:40:40;19.18;58.12
65239;SHT30;51827;51.186;6.926;2023-11-21T01:41:40;19.16;58.16
65239;SHT30;51827;51.186;6.926;2023-11-21T01:42:42;19.19;58.14
65239;SHT30;51827;51.186;6.926;2023-11-21T01:43:42;19.18;58.18
65239;SHT30;51827;51.186;6.926;2023-11-21T01:44:42;19.22;58.14
65239;SHT30;51827;51.186;6.926;2023-11-21T01:45:42;19.19;58.10
65239;SHT30;51827;51.186;6.926;2023-11-21T01:46:42;19.18;58.16
65239;SHT30;51827;51.186;6.926;2023-11-21T01:47:44;19.18;58.12
65239;SHT30;51827;51.186;6.926;2023-11-21T01:48:45;19.19;58.14
65239;SHT30;51827;51.186;6.926;2023-11-21T01:49:45;19.18;58.15
65239;SHT30;51827;51.186;6.926;2023-11-21T01:50:46;19.18;58.14
65239;SHT30;51827;51.186;6.926;2023-11-21T01:51:48;19.16;58.17
65239;SHT30;51827;51.186;6.926;2023-11-21T01:52:53;19.18;58.12
65239;SHT30;51827;51.186;6.926;2023-11-21T01:53:53;19.19;58.15
65239;SHT30;51827;51.186;6.926;2023-11-21T01:54:53;19.15;58.14
65239;SHT30;51827;51.186;6.926;2023-11-21T01:55:55;19.16;58.16
65239;SHT30;51827;51.186;6.926;2023-11-21T01:56:55;19.18;58.15
65239;SHT30;51827;51.186;6.926;2023-11-21T01:57:58;19.16;58.19
65239;SHT30;51827;51.186;6.926;2023-11-21T01:58:58;19.16;58.13
65239;SHT30;51827;51.186;6.926;2023-11-21T02:00:01;19.15;58.15
65239;SHT30;51827;51.186;6.926;2023-11-21T02:01:01;19.16;58.12
65239;SHT30;51827;51.186;6.926;2023-11-21T02:02:11;19.18;58.15
65239;SHT30;51827;51.186;6.926;2023-11-21T02:03:11;19.15;58.16
65239;SHT30;51827;51.186;6.926;2023-11-21T02:04:11;19.16;58.12
65239;SHT30;51827;51.186;6.926;2023-11-21T02:05:12;19.18;58.14
65239;SHT30;51827;51.186;6.926;2023-11-21T02:06:13;19.18;58.12
65239;SHT30;51827;51.186;6.926;2023-11-21T02:07:13;19.15;58.13
65239;SHT30;51827;51.186;6.926;2023-11-21T02:08:13;19.15;58.13
65239;SHT30;51827;51.186;6.926;2023-11-21T02:09:14;19.16;58.13
65239;SHT30;51827;51.186;6.926;2023-11-21T02:10:15;19.16;58.12
65239;SHT30;51827;51.186;6.926;2023-11-21T02:11:15;19.18;58.14
65239;SHT30;51827;51.186;6.926;2023-11-21T02:12:16;19.15;58.13
65239;SHT30;51827;51.186;6.926;2023-11-21T02:13:16;19.15;58.10
65239;SHT30;51827;51.186;6.926;2023-11-21T02:14:16;19.16;58.14
65239;SHT30;51827;51.186;6.926;2023-11-21T02:15:17;19.18;58.11
65239;SHT30;51827;51.186;6.926;2023-11-21T02:16:17;19.16;58.11
65239;SHT30;51827;51.186;6.926;2023-11-21T02:17:17;19.16;58.13
65239;SHT30;51827;51.186;6.926;2023-11-21T02:18:18;19.18;58.07
65239;SHT30;51827;51.186;6.926;2023-11-21T02:19:19;19.18;58.12
65239;SHT30;51827;51.186;6.926;2023-11-21T02:20:20;19.16;58.09
65239;SHT30;51827;51.186;6.926;2023-11-21T02:21:20;19.16;58.07
65239;SHT30;51827;51.186;6.926;2023-11-21T02:22:20;19.18;58.07
65239;SHT30;51827;51.186;6.926;2023-11-21T02:23:21;19.18;58.04
65239;SHT30;51827;51.186;6.926;2023-11-21T02:24:22;19.16;58.08
65239;SHT30;51827;51.186;6.926;2023-11-21T02:25:22;19.19;58.02
65239;SHT30;51827;51.186;6.926;2023-11-21T02:26:22;19.18;58.00
65239;SHT30;51827;51.186;6.926;2023-11-21T02:27:24;19.18;58.02
65239;SHT30;51827;51.186;6.926;2023-11-21T02:28:24;19.18;58.03
65239;SHT30;51827;51.186;6.926;2023-11-21T02:29:25;19.18;58.03
65239;SHT30;51827;51.186;6.926;2023-11-21T02:30:25;19.16;58.06
65239;SHT30;51827;51.186;6.926;2023-11-21T02:31:25;19.18;58.05
65239;SHT30;51827;51.186;6.926;2023-11-21T02:32:25;19.18;58.03
65239;SHT30;51827;51.186;6.926;2023-11-21T02:33:26;19.16;58.09
65239;SHT30;51827;51.186;6.926;2023-11-21T02:34:26;19.15;58.04
65239;SHT30;51827;51.186;6.926;2023-11-21T02:35:26;19.19;58.06
65239;SHT30;51827;51.186;6.926;2023-11-21T02:36:27;19.16;58.05
65239;SHT30;51827;51.186;6.926;2023-11-21T02:37:27;19.19;58.05
65239;SHT30;51827;51.186;6.926;2023-11-21T02:38:27;19.18;58.05
65239;SHT30;51827;51.186;6.926;2023-11-21T02:39:27;19.16;58.09
65239;SHT30;51827;51.186;6.926;2023-11-21T02:40:28;19.16;58.06
65239;SHT30;51827;51.186;6.926;2023-11-21T02:41:29;19.15;58.00
65239;SHT30;51827;51.186;6.926;2023-11-21T02:42:29;19.16;58.04
65239;SHT30;51827;51.186;6.926;2023-11-21T02:43:30;19.15;58.05
65239;SHT30;51827;51.186;6.926;2023-11-21T02:44:30;19.16;58.06
65239;SHT30;51827;51.186;6.926;2023-11-21T02:45:30;19.15;58.08
65239;SHT30;51827;51.186;6.926;2023-11-21T02:46:30;19.15;58.08
65239;SHT30;51827;51.186;6.926;2023-11-21T02:47:31;19.16;58.06
65239;SHT30;51827;51.186;6.926;2023-11-21T02:48:31;19.16;58.05
65239;SHT30;51827;51.186;6.926;2023-11-21T02:49:31;19.19;58.03
65239;SHT30;51827;51.186;6.926;2023-11-21T02:50:31;19.19;58.00
65239;SHT30;51827;51.186;6.926;2023-11-21T02:51:32;19.15;58.03
65239;SHT30;51827;51.186;6.926;2023-11-21T02:52:33;19.16;58.03
65239;SHT30;51827;51.186;6.926;2023-11-21T02:53:33;19.16;58.04
65239;SHT30;51827;51.186;6.926;2023-11-21T02:54:33;19.15;58.03
65239;SHT30;51827;51.186;6.926;2023-11-21T02:55:33;19.18;58.02
65239;SHT30;51827;51.186;6.926;2023-11-21T02:56:34;19.16;58.04
65239;SHT30;51827;51.186;6.926;2023-11-21T02:57:34;19.16;58.03
65239;SHT30;51827;51.186;6.926;2023-11-21T02:58:34;19.15;58.01
65239;SHT30;51827;51.186;6.926;2023-11-21T02:59:34;19.16;58.04
65239;SHT30;51827;51.186;6.926;2023-11-21T03:00:35;19.18;58.04
65239;SHT30;51827;51.186;6.926;2023-11-21T03:01:35;19.15;58.00
65239;SHT30;51827;51.186;6.926;2023-11-21T03:02:35;19.16;58.02
65239;SHT30;51827;51.186;6.926;2023-11-21T03:03:35;19.15;58.04
65239;SHT30;51827;51.186;6.926;2023-11-21T03:04:36;19.13;58.01
65239;SHT30;51827;51.186;6.926;2023-11-21T03:05:36;19.18;58.03
65239;SHT30;51827;51.186;6.926;2023-11-21T03:06:36;19.15;58.05
65239;SHT30;51827;51.186;6.926;2023-11-21T03:07:37;19.16;58.04
65239;SHT30;51827;51.186;6.926;2023-11-21T03:08:38;19.15;58.07
65239;SHT30;51827;51.186;6.926;2023-11-21T03:09:38;19.15;58.04
65239;SHT30;51827;51.186;6.926;2023-11-21T03:10:38;19.16;58.05
65239;SHT30;51827;51.186;6.926;2023-11-21T03:11:38;19.15;58.02
65239;SHT30;51827;51.186;6.926;2023-11-21T03:12:39;19.16;58.04
65239;SHT30;51827;51.186;6.926;2023-11-21T03:13:40;19.15;58.04
65239;SHT30;51827;51.186;6.926;2023-11-21T03:14:41;19.15;58.00
65239;SHT30;51827;51.186;6.926;2023-11-21T03:15:41;19.18;58.06
65239;SHT30;51827;51.186;6.926;2023-11-21T03:16:41;19.16;58.01
65239;SHT30;51827;51.186;6.926;2023-11-21T03:17:41;19.15;58.01
65239;SHT30;51827;51.186;6.926;2023-11-21T03:18:42;19.16;57.99
65239;SHT30;51827;51.186;6.926;2023-11-21T03:19:42;19.15;57.98
65239;SHT30;51827;51.186;6.926;2023-11-21T03:20:43;19.13;57.97
65239;SHT30;51827;51.186;6.926;2023-11-21T03:21:44;19.15;58.00
65239;SHT30;51827;51.186;6.926;2023-11-21T03:22:44;19.15;58.02
65239;SHT30;51827;51.186;6.926;2023-11-21T03:23:44;19.16;58.01
65239;SHT30;51827;51.186;6.926;2023-11-21T03:24:44;19.15;58.01
65239;SHT30;51827;51.186;6.926;2023-11-21T03:25:45;19.15;58.02
65239;SHT30;51827;51.186;6.926;2023-11-21T03:26:45;19.13;58.05
65239;SHT30;51827;51.186;6.926;2023-11-21T03:27:46;19.15;58.00
65239;SHT30;51827;51.186;6.926;2023-11-21T03:28:46;19.15;57.99
65239;SHT30;51827;51.186;6.926;2023-11-21T03:29:47;19.15;58.02
65239;SHT30;51827;51.186;6.926;2023-11-21T03:30:48;19.15;57.99
65239;SHT30;51827;51.186;6.926;2023-11-21T03:31:48;19.15;57.99
65239;SHT30;51827;51.186;6.926;2023-11-21T03:32:48;19.15;58.02
65239;SHT30;51827;51.186;6.926;2023-11-21T03:33:48;19.15;57.97
65239;SHT30;51827;51.186;6.926;2023-11-21T03:34:56;19.16;57.97
65239;SHT30;51827;51.186;6.926;2023-11-21T03:35:57;19.18;58.00
65239;SHT30;51827;51.186;6.926;2023-11-21T03:36:57;19.16;58.00
65239;SHT30;51827;51.186;6.926;2023-11-21T03:37:57;19.15;57.99
65239;SHT30;51827;51.186;6.926;2023-11-21T03:38:57;19.16;57.99
65239;SHT30;51827;51.186;6.926;2023-11-21T03:39:58;19.15;58.00
65239;SHT30;51827;51.186;6.926;2023-11-21T03:40:58;19.13;57.99
65239;SHT30;51827;51.186;6.926;2023-11-21T03:41:58;19.13;57.97
65239;SHT30;51827;51.186;6.926;2023-11-21T03:42:58;19.15;57.99
65239;SHT30;51827;51.186;6.926;2023-11-21T03:43:59;19.15;57.99
65239;SHT30;51827;51.186;6.926;2023-11-21T03:44:59;19.13;57.98
65239;SHT30;51827;51.186;6.926;2023-11-21T03:45:59;19.15;57.99
65239;SHT30;51827;51.186;6.926;2023-11-21T03:46:59;19.15;58.00
65239;SHT30;51827;51.186;6.926;2023-11-21T03:48:00;19.16;57.97
65239;SHT30;51827;51.186;6.926;2023-11-21T03:49:00;19.15;57.94
65239;SHT30;51827;51.186;6.926;2023-11-21T03:50:00;19.15;57.96
65239;SHT30;51827;51.186;6.926;2023-11-21T03:51:01;19.10;57.98
65239;SHT30;51827;51.186;6.926;2023-11-21T03:52:01;19.12;57.99
65239;SHT30;51827;51.186;6.926;2023-11-21T03:53:01;19.15;58.01
65239;SHT30;51827;51.186;6.926;2023-11-21T03:54:02;19.15;58.00
65239;SHT30;51827;51.186;6.926;2023-11-21T03:55:02;19.15;57.96
65239;SHT30;51827;51.186;6.926;2023-11-21T03:56:03;19.13;58.02
65239;SHT30;51827;51.186;6.926;2023-11-21T03:57:03;19.15;57.97
65239;SHT30;51827;51.186;6.926;2023-11-21T03:58:04;19.15;57.95
65239;SHT30;51827;51.186;6.926;2023-11-21T03:59:04;19.16;57.98
65239;SHT30;51827;51.186;6.926;2023-11-21T04:00:05;19.13;57.98
65239;SHT30;51827;51.186;6.926;2023-11-21T04:01:05;19.13;57.97
65239;SHT30;51827;51.186;6.926;2023-11-21T04:02:06;19.13;57.92
65239;SHT30;51827;51.186;6.926;2023-11-21T04:03:06;19.15;57.97
65239;SHT30;51827;51.186;6.926;2023-11-21T04:04:06;19.13;57.94
65239;SHT30;51827;51.186;6.926;2023-11-21T04:05:06;19.15;57.96
65239;SHT30;51827;51.186;6.926;2023-11-21T04:06:07;19.15;57.96
65239;SHT30;51827;51.186;6.926;2023-11-21T04:07:07;19.16;57.93
65239;SHT30;51827;51.186;6.926;2023-11-21T04:08:08;19.16;57.96
65239;SHT30;51827;51.186;6.926;2023-11-21T04:09:08;19.18;57.96
65239;SHT30;51827;51.186;6.926;2023-11-21T04:10:09;19.15;57.94
65239;SHT30;51827;51.186;6.926;2023-11-21T04:11:09;19.15;57.95
65239;SHT30;51827;51.186;6.926;2023-11-21T04:13:39;19.15;57.94
65239;SHT30;51827;51.186;6.926;2023-11-21T04:14:39;19.15;57.94
65239;SHT30;51827;51.186;6.926;2023-11-21T04:15:39;19.16;57.94
65239;SHT30;51827;51.186;6.926;2023-11-21T04:16:40;19.16;57.95
65239;SHT30;51827;51.186;6.926;2023-11-21T04:17:41;19.15;57.93
65239;SHT30;51827;51.186;6.926;2023-11-21T04:18:41;19.15;57.94
65239;SHT30;51827;51.186;6.926;2023-11-21T04:19:41;19.16;57.92
65239;SHT30;51827;51.186;6.926;2023-11-21T04:20:42;19.15;57.95
65239;SHT30;51827;51.186;6.926;2023-11-21T04:21:42;19.16;57.96
65239;SHT30;51827;51.186;6.926;2023-11-21T04:22:43;19.13;57.94
65239;SHT30;51827;51.186;6.926;2023-11-21T04:23:44;19.18;57.92
65239;SHT30;51827;51.186;6.926;2023-11-21T04:24:44;19.16;57.89
65239;SHT30;51827;51.186;6.926;2023-11-21T04:25:44;19.15;57.85
65239;SHT30;51827;51.186;6.926;2023-11-21T04:26:45;19.18;57.89
65239;SHT30;51827;51.186;6.926;2023-11-21T04:27:45;19.16;57.89
65239;SHT30;51827;51.186;6.926;2023-11-21T04:28:45;19.16;57.91
65239;SHT30;51827;51.186;6.926;2023-11-21T04:29:45;19.18;57.90
65239;SHT30;51827;51.186;6.926;2023-11-21T04:30:46;19.15;57.92
65239;SHT30;51827;51.186;6.926;2023-11-21T04:31:46;19.15;58.01
65239;SHT30;51827;51.186;6.926;2023-11-21T04:32:46;19.15;58.08
65239;SHT30;51827;51.186;6.926;2023-11-21T04:33:47;19.16;58.16
65239;SHT30;51827;51.186;6.926;2023-11-21T04:34:47;19.18;58.18
65239;SHT30;51827;51.186;6.926;2023-11-21T04:35:47;19.15;58.24
65239;SHT30;51827;51.186;6.926;2023-11-21T04:36:47;19.15;58.28
65239;SHT30;51827;51.186;6.926;2023-11-21T04:37:48;19.16;58.29
65239;SHT30;51827;51.186;6.926;2023-11-21T04:38:48;19.16;58.25
65239;SHT30;51827;51.186;6.926;2023-11-21T04:39:48;19.15;58.33
65239;SHT30;51827;51.186;6.926;2023-11-21T04:40:48;19.15;58.29
65239;SHT30;51827;51.186;6.926;2023-11-21T04:41:50;19.16;58.34
65239;SHT30;51827;51.186;6.926;2023-11-21T04:42:50;19.19;58.60
65239;SHT30;51827;51.186;6.926;2023-11-21T04:43:50;19.18;58.55
65239;SHT30;51827;51.186;6.926;2023-11-21T04:44:50;19.18;58.57
65239;SHT30;51827;51.186;6.926;2023-11-21T04:45:50;19.16;58.47
65239;SHT30;51827;51.186;6.926;2023-11-21T04:46:51;19.19;58.49
65239;SHT30;51827;51.186;6.926;2023-11-21T04:47:51;19.20;58.53
65239;SHT30;51827;51.186;6.926;2023-11-21T04:48:51;19.19;58.51
65239;SHT30;51827;51.186;6.926;2023-11-21T04:49:51;19.19;58.52
65239;SHT30;51827;51.186;6.926;2023-11-21T04:50:52;19.19;58.53
65239;SHT30;51827;51.186;6.926;2023-11-21T04:51:52;19.16;58.50
65239;SHT30;51827;51.186;6.926;2023-11-21T04:52:52;19.20;58.49
65239;SHT30;51827;51.186;6.926;2023-11-21T04:53:52;19.18;58.49
65239;SHT30;51827;51.186;6.926;2023-11-21T04:54:53;19.19;58.81
65239;SHT30;51827;51.186;6.926;2023-11-21T04:55:53;19.20;59.28
65239;SHT30;51827;51.186;6.926;2023-11-21T04:56:53;19.20;59.66
65239;SHT30;51827;51.186;6.926;2023-11-21T04:57:54;19.22;59.82
65239;SHT30;51827;51.186;6.926;2023-11-21T04:58:54;19.23;59.89
65239;SHT30;51827;51.186;6.926;2023-11-21T04:59:54;19.23;60.00
65239;SHT30;51827;51.186;6.926;2023-11-21T05:00:55;19.26;60.04
65239;SHT30;51827;51.186;6.926;2023-11-21T05:01:55;19.27;60.15
65239;SHT30;51827;51.186;6.926;2023-11-21T05:02:55;19.29;60.10
65239;SHT30;51827;51.186;6.926;2023-11-21T05:03:55;19.32;60.08
65239;SHT30;51827;51.186;6.926;2023-11-21T05:04:56;19.32;60.06
65239;SHT30;51827;51.186;6.926;2023-11-21T05:05:56;19.34;60.04
65239;SHT30;51827;51.186;6.926;2023-11-21T05:06:56;19.36;60.04
65239;SHT30;51827;51.186;6.926;2023-11-21T05:07:56;19.37;59.97
65239;SHT30;51827;51.186;6.926;2023-11-21T05:08:56;19.37;59.94
65239;SHT30;51827;51.186;6.926;2023-11-21T05:09:57;19.39;59.88
65239;SHT30;51827;51.186;6.926;2023-11-21T05:10:57;19.40;59.81
65239;SHT30;51827;51.186;6.926;2023-11-21T05:11:58;19.39;59.88
65239;SHT30;51827;51.186;6.926;2023-11-21T05:12:58;19.40;59.85
65239;SHT30;51827;51.186;6.926;2023-11-21T05:13:58;19.40;59.85
65239;SHT30;51827;51.186;6.926;2023-11-21T05:14:58;19.39;59.80
65239;SHT30;51827;51.186;6.926;2023-11-21T05:15:59;19.42;59.82
65239;SHT30;51827;51.186;6.926;2023-11-21T05:16:59;19.42;59.79
65239;SHT30;51827;51.186;6.926;2023-11-21T05:17:59;19.39;59.80
65239;SHT30;51827;51.186;6.926;2023-11-21T05:18:59;19.39;59.71
65239;SHT30;51827;51.186;6.926;2023-11-21T05:19:59;19.40;59.64
65239;SHT30;51827;51.186;6.926;2023-11-21T05:21:00;19.37;59.63
65239;SHT30;51827;51.186;6.926;2023-11-21T05:22:00;19.36;59.49
65239;SHT30;51827;51.186;6.926;2023-11-21T05:23:00;19.36;59.39
65239;SHT30;51827;51.186;6.926;2023-11-21T05:24:01;19.34;59.35
65239;SHT30;51827;51.186;6.926;2023-11-21T05:25:02;19.34;59.35
65239;SHT30;51827;51.186;6.926;2023-11-21T05:26:03;19.33;59.30
65239;SHT30;51827;51.186;6.926;2023-11-21T05:27:03;19.32;59.26
65239;SHT30;51827;51.186;6.926;2023-11-21T05:28:03;19.34;59.21
65239;SHT30;51827;51.186;6.926;2023-11-21T05:29:04;19.32;59.17
65239;SHT30;51827;51.186;6.926;2023-11-21T05:30:06;19.33;59.14
65239;SHT30;51827;51.186;6.926;2023-11-21T05:31:06;19.30;59.13
65239;SHT30;51827;51.186;6.926;2023-11-21T05:32:07;19.33;59.10
65239;SHT30;51827;51.186;6.926;2023-11-21T05:33:07;19.32;59.08
65239;SHT30;51827;51.186;6.926;2023-11-21T05:34:07;19.29;59.03
65239;SHT30;51827;51.186;6.926;2023-11-21T05:35:07;19.30;58.99
65239;SHT30;51827;51.186;6.926;2023-11-21T05:36:08;19.32;59.03
65239;SHT30;51827;51.186;6.926;2023-11-21T05:37:08;19.30;59.01
65239;SHT30;51827;51.186;6.926;2023-11-21T05:38:08;19.29;58.97
65239;SHT30;51827;51.186;6.926;2023-11-21T05:39:09;19.30;58.92
65239;SHT30;51827;51.186;6.926;2023-11-21T05:40:09;19.30;58.89
65239;SHT30;51827;51.186;6.926;2023-11-21T05:41:10;19.27;58.87
65239;SHT30;51827;51.186;6.926;2023-11-21T05:42:10;19.30;58.88
65239;SHT30;51827;51.186;6.926;2023-11-21T05:43:10;19.26;58.86
65239;SHT30;51827;51.186;6.926;2023-11-21T05:44:10;19.30;58.81
65239;SHT30;51827;51.186;6.926;2023-11-21T05:45:10;19.29;58.79
65239;SHT30;51827;51.186;6.926;2023-11-21T05:46:11;19.29;58.80
65239;SHT30;51827;51.186;6.926;2023-11-21T05:47:11;19.29;58.72
65239;SHT30;51827;51.186;6.926;2023-11-21T05:48:12;19.27;58.76
65239;SHT30;51827;51.186;6.926;2023-11-21T05:49:12;19.27;58.72
65239;SHT30;51827;51.186;6.926;2023-11-21T05:50:14;19.26;58.73
65239;SHT30;51827;51.186;6.926;2023-11-21T05:51:14;19.27;58.73
65239;SHT30;51827;51.186;6.926;2023-11-21T05:52:15;19.29;58.73
65239;SHT30;51827;51.186;6.926;2023-11-21T05:53:15;19.23;58.70
65239;SHT30;51827;51.186;6.926;2023-11-21T05:54:16;19.27;58.70
65239;SHT30;51827;51.186;6.926;2023-11-21T05:55:16;19.27;58.60
65239;SHT30;51827;51.186;6.926;2023-11-21T05:56:16;19.27;58.65
65239;SHT30;51827;51.186;6.926;2023-11-21T05:57:16;19.26;58.63
65239;SHT30;51827;51.186;6.926;2023-11-21T05:58:17;19.24;58.64
65239;SHT30;51827;51.186;6.926;2023-11-21T05:59:17;19.23;58.62
65239;SHT30;51827;51.186;6.926;2023-11-21T06:00:17;19.26;58.55
65239;SHT30;51827;51.186;6.926;2023-11-21T06:01:17;19.26;58.58
65239;SHT30;51827;51.186;6.926;2023-11-21T06:02:18;19.23;58.61
65239;SHT30;51827;51.186;6.926;2023-11-21T06:03:18;19.23;58.59
65239;SHT30;51827;51.186;6.926;2023-11-21T06:04:18;19.26;58.55
65239;SHT30;51827;51.186;6.926;2023-11-21T06:05:20;19.24;58.52
65239;SHT30;51827;51.186;6.926;2023-11-21T06:06:21;19.24;58.50
65239;SHT30;51827;51.186;6.926;2023-11-21T06:07:21;19.26;58.50
65239;SHT30;51827;51.186;6.926;2023-11-21T06:08:21;19.26;58.51
65239;SHT30;51827;51.186;6.926;2023-11-21T06:09:21;19.26;58.46
65239;SHT30;51827;51.186;6.926;2023-11-21T06:10:22;19.24;58.48
65239;SHT30;51827;51.186;6.926;2023-11-21T06:11:23;19.23;58.46
65239;SHT30;51827;51.186;6.926;2023-11-21T06:12:23;19.24;58.46
65239;SHT30;51827;51.186;6.926;2023-11-21T06:13:23;19.23;58.45
65239;SHT30;51827;51.186;6.926;2023-11-21T06:14:23;19.24;58.42
65239;SHT30;51827;51.186;6.926;2023-11-21T06:15:24;19.23;58.42
65239;SHT30;51827;51.186;6.926;2023-11-21T06:16:24;19.24;58.36
65239;SHT30;51827;51.186;6.926;2023-11-21T06:17:24;19.24;58.38
65239;SHT30;51827;51.186;6.926;2023-11-21T06:18:24;19.24;58.38
65239;SHT30;51827;51.186;6.926;2023-11-21T06:19:25;19.24;58.39
65239;SHT30;51827;51.186;6.926;2023-11-21T06:20:25;19.24;58.37
65239;SHT30;51827;51.186;6.926;2023-11-21T06:21:25;19.24;58.36
65239;SHT30;51827;51.186;6.926;2023-11-21T06:22:25;19.23;58.39